sensor_id;sensor_type;location;lat;lon;timestamp;pressure;altitude;pressure_sealevel;temperature;humidity
76122;BME280;70471;53.200;6.080;2024-03-08T00:03:36;102204.22;;;19.21;33.77
76122;BME280;70471;53.200;6.080;2024-03-08T00:08:29;102196.53;;;19.23;33.72
76122;BME280;70471;53.200;6.080;2024-03-08T00:13:21;102187.16;;;19.29;33.86
76122;BME280;70471;53.200;6.080;2024-03-08T00:18:12;102199.59;;;19.26;33.63
76122;BME280;70471;53.200;6.080;2024-03-08T00:23:04;102189.38;;;19.32;33.57
76122;BME280;70471;53.200;6.080;2024-03-08T00:27:56;102186.88;;;19.30;33.48
76122;BME280;70471;53.200;6.080;2024-03-08T00:32:50;102184.72;;;19.33;33.33
76122;BME280;70471;53.200;6.080;2024-03-08T00:37:41;102183.59;;;19.34;33.35
76122;BME280;70471;53.200;6.080;2024-03-08T00:42:33;102182.22;;;19.31;33.50
76122;BME280;70471;53.200;6.080;2024-03-08T00:47:25;102179.50;;;19.36;33.00
76122;BME280;70471;53.200;6.080;2024-03-08T00:52:17;102170.63;;;19.34;33.09
76122;BME280;70471;53.200;6.080;2024-03-08T00:57:09;102162.38;;;19.39;32.85
76122;BME280;70471;53.200;6.080;2024-03-08T01:02:00;102162.63;;;19.38;33.10
76122;BME280;70471;53.200;6.080;2024-03-08T01:06:53;102151.88;;;19.41;33.29
76122;BME280;70471;53.200;6.080;2024-03-08T01:11:46;102137.25;;;19.41;33.25
76122;BME280;70471;53.200;6.080;2024-03-08T01:16:38;102134.47;;;19.41;32.79
76122;BME280;70471;53.200;6.080;2024-03-08T01:21:30;102130.34;;;19.43;32.74
76122;BME280;70471;53.200;6.080;2024-03-08T01:26:24;102099.31;;;19.31;32.86
76122;BME280;70471;53.200;6.080;2024-03-08T01:31:17;102110.19;;;19.48;32.92
76122;BME280;70471;53.200;6.080;2024-03-08T01:36:09;102107.69;;;19.46;32.80
76122;BME280;70471;53.200;6.080;2024-03-08T01:41:02;102086.41;;;19.47;32.64
76122;BME280;70471;53.200;6.080;2024-03-08T01:45:57;102090.56;;;19.50;32.56
76122;BME280;70471;53.200;6.080;2024-03-08T01:50:50;102084.50;;;19.53;32.32
76122;BME280;70471;53.200;6.080;2024-03-08T01:55:47;102064.03;;;19.43;32.83
76122;BME280;70471;53.200;6.080;2024-03-08T02:00:40;102072.91;;;19.56;32.75
76122;BME280;70471;53.200;6.080;2024-03-08T02:05:36;102062.09;;;19.49;32.43
76122;BME280;70471;53.200;6.080;2024-03-08T02:10:29;102072.91;;;19.56;32.70
76122;BME280;70471;53.200;6.080;2024-03-08T02:15:21;102066.28;;;19.57;32.37
76122;BME280;70471;53.200;6.080;2024-03-08T02:20:14;102065.22;;;19.58;32.19
76122;BME280;70471;53.200;6.080;2024-03-08T02:25:09;102055.22;;;19.57;32.08
76122;BME280;70471;53.200;6.080;2024-03-08T02:30:01;102050.78;;;19.56;32.38
76122;BME280;70471;53.200;6.080;2024-03-08T02:34:56;102043.94;;;19.58;32.40
76122;BME280;70471;53.200;6.080;2024-03-08T02:39:50;102038.91;;;19.55;31.94
76122;BME280;70471;53.200;6.080;2024-03-08T02:44:44;102043.66;;;19.60;31.95
76122;BME280;70471;53.200;6.080;2024-03-08T02:49:37;102032.06;;;19.58;32.09
76122;BME280;70471;53.200;6.080;2024-03-08T02:54:30;102036.22;;;19.65;31.83
76122;BME280;70471;53.200;6.080;2024-03-08T02:59:22;102027.63;;;19.62;31.81
76122;BME280;70471;53.200;6.080;2024-03-08T03:04:16;102016.84;;;19.65;31.80
76122;BME280;70471;53.200;6.080;2024-03-08T03:09:09;102019.34;;;19.67;31.62
76122;BME280;70471;53.200;6.080;2024-03-08T03:14:02;102010.53;;;19.70;31.69
76122;BME280;70471;53.200;6.080;2024-03-08T03:18:55;101993.38;;;19.63;31.76
76122;BME280;70471;53.200;6.080;2024-03-08T03:23:51;102008.34;;;19.72;32.01
76122;BME280;70471;53.200;6.080;2024-03-08T03:28:43;101996.94;;;19.63;31.62
76122;BME280;70471;53.200;6.080;2024-03-08T03:33:36;101989.53;;;19.69;31.69
76122;BME280;70471;53.200;6.080;2024-03-08T03:38:28;101989.53;;;19.69;31.50
76122;BME280;70471;53.200;6.080;2024-03-08T03:43:23;101988.44;;;19.75;31.55
76122;BME280;70471;53.200;6.080;2024-03-08T03:48:16;101968.22;;;19.64;31.51
76122;BME280;70471;53.200;6.080;2024-03-08T03:53:09;101979.03;;;19.76;31.68
76122;BME280;70471;53.200;6.080;2024-03-08T03:58:01;101959.06;;;19.64;31.42
76122;BME280;70471;53.200;6.080;2024-03-08T04:02:56;101958.53;;;19.67;31.12
76122;BME280;70471;53.200;6.080;2024-03-08T04:07:50;101967.97;;;19.76;31.39
76122;BME280;70471;53.200;6.080;2024-03-08T04:12:43;101961.34;;;19.72;31.18
76122;BME280;70471;53.200;6.080;2024-03-08T04:17:35;101960.78;;;19.75;31.13
76122;BME280;70471;53.200;6.080;2024-03-08T04:22:28;101961.06;;;19.79;31.33
76122;BME280;70471;53.200;6.080;2024-03-08T04:27:20;101953.03;;;19.77;31.07
76122;BME280;70471;53.200;6.080;2024-03-08T04:32:11;101947.50;;;19.77;31.04
76122;BME280;70471;53.200;6.080;2024-03-08T04:37:04;101947.50;;;19.77;31.38
76122;BME280;70471;53.200;6.080;2024-03-08T04:42:00;101947.50;;;19.77;31.38
76122;BME280;70471;53.200;6.080;2024-03-08T04:46:53;101938.66;;;19.75;31.20
76122;BME280;70471;53.200;6.080;2024-03-08T04:51:46;101934.22;;;19.79;31.39
76122;BME280;70471;53.200;6.080;2024-03-08T04:56:39;101940.63;;;19.80;31.24
76122;BME280;70471;53.200;6.080;2024-03-08T05:01:34;101931.75;;;19.83;30.68
76122;BME280;70471;53.200;6.080;2024-03-08T05:06:28;101936.44;;;19.82;30.80
76122;BME280;70471;53.200;6.080;2024-03-08T05:11:21;101900.50;;;19.72;31.22
76122;BME280;70471;53.200;6.080;2024-03-08T05:16:14;101925.94;;;19.84;31.18
76122;BME280;70471;53.200;6.080;2024-03-08T05:21:08;101923.19;;;19.90;31.04
76122;BME280;70471;53.200;6.080;2024-03-08T05:26:01;101912.38;;;19.83;30.62
76122;BME280;70471;53.200;6.080;2024-03-08T05:30:53;101926.25;;;19.88;30.63
76122;BME280;70471;53.200;6.080;2024-03-08T05:35:47;101920.97;;;19.92;30.53
76122;BME280;70471;53.200;6.080;2024-03-08T05:40:40;101888.31;;;19.73;30.49
76122;BME280;70471;53.200;6.080;2024-03-08T05:45:33;101928.72;;;19.95;30.86
76122;BME280;70471;53.200;6.080;2024-03-08T05:50:26;101915.44;;;19.92;30.39
76122;BME280;70471;53.200;6.080;2024-03-08T05:55:19;101904.94;;;19.89;30.49
76122;BME280;70471;53.200;6.080;2024-03-08T06:00:14;101917.66;;;19.90;30.40
76122;BME280;70471;53.200;6.080;2024-03-08T06:05:08;101923.75;;;19.97;30.23
76122;BME280;70471;53.200;6.080;2024-03-08T06:10:01;101916.56;;;19.96;30.56
76122;BME280;70471;53.200;6.080;2024-03-08T06:14:54;101914.91;;;20.00;30.25
76122;BME280;70471;53.200;6.080;2024-03-08T06:19:48;101925.97;;;20.00;30.36
76122;BME280;70471;53.200;6.080;2024-03-08T06:24:41;101919.88;;;20.03;30.46
76122;BME280;70471;53.200;6.080;2024-03-08T06:29:33;101913.00;;;20.00;30.06
76122;BME280;70471;53.200;6.080;2024-03-08T06:34:27;101911.31;;;20.05;30.20
76122;BME280;70471;53.200;6.080;2024-03-08T06:39:21;101912.69;;;19.97;30.26
76122;BME280;70471;53.200;6.080;2024-03-08T06:44:15;101908.28;;;20.01;30.33
76122;BME280;70471;53.200;6.080;2024-03-08T06:49:08;101895.53;;;19.90;30.00
76122;BME280;70471;53.200;6.080;2024-03-08T06:54:01;101898.84;;;19.97;30.08
76122;BME280;70471;53.200;6.080;2024-03-08T06:59:00;101909.66;;;19.93;30.02
76122;BME280;70471;53.200;6.080;2024-03-08T07:03:54;101907.16;;;20.02;30.14
76122;BME280;70471;53.200;6.080;2024-03-08T07:08:47;101896.38;;;19.90;30.10
76122;BME280;70471;53.200;6.080;2024-03-08T07:13:40;101901.06;;;20.00;30.04
76122;BME280;70471;53.200;6.080;2024-03-08T07:18:35;101903.28;;;19.98;29.98
76122;BME280;70471;53.200;6.080;2024-03-08T07:23:31;101890.00;;;19.95;30.03
76122;BME280;70471;53.200;6.080;2024-03-08T07:28:53;101893.03;;;19.98;29.98
76122;BME280;70471;53.200;6.080;2024-03-08T07:33:48;101898.03;;;20.01;29.71
76122;BME280;70471;53.200;6.080;2024-03-08T07:38:40;101899.44;;;20.04;29.89
76122;BME280;70471;53.200;6.080;2024-03-08T07:43:32;101890.56;;;20.12;29.81
76122;BME280;70471;53.200;6.080;2024-03-08T07:48:24;101884.47;;;20.15;30.71
76122;BME280;70471;53.200;6.080;2024-03-08T07:53:20;101886.16;;;20.22;30.25
76122;BME280;70471;53.200;6.080;2024-03-08T07:58:15;101880.63;;;20.47;30.40
76122;BME280;70471;53.200;6.080;2024-03-08T08:03:08;101876.41;;;20.70;30.24
76122;BME280;70471;53.200;6.080;2024-03-08T08:07:59;101871.38;;;20.88;29.96
76122;BME280;70471;53.200;6.080;2024-03-08T08:12:54;101862.19;;;21.03;29.85
76122;BME280;70471;53.200;6.080;2024-03-08T08:17:47;101851.09;;;21.13;29.43
76122;BME280;70471;53.200;6.080;2024-03-08T08:22:39;101849.34;;;21.22;29.82
76122;BME280;70471;53.200;6.080;2024-03-08T08:27:31;101841.84;;;21.28;29.25
76122;BME280;70471;53.200;6.080;2024-03-08T08:32:25;101839.38;;;21.26;29.61
76122;BME280;70471;53.200;6.080;2024-03-08T08:37:17;101836.59;;;21.26;29.34
76122;BME280;70471;53.200;6.080;2024-03-08T08:42:08;101826.13;;;21.18;29.37
76122;BME280;70471;53.200;6.080;2024-03-08T08:47:01;101822.00;;;21.00;29.42
76122;BME280;70471;53.200;6.080;2024-03-08T08:51:55;101814.25;;;21.02;29.90
76122;BME280;70471;53.200;6.080;2024-03-08T08:56:48;101803.38;;;21.16;29.71
76122;BME280;70471;53.200;6.080;2024-03-08T09:01:40;101788.94;;;21.24;29.70
76122;BME280;70471;53.200;6.080;2024-03-08T09:06:33;101787.81;;;21.31;29.27
76122;BME280;70471;53.200;6.080;2024-03-08T09:11:27;101776.44;;;21.27;29.75
76122;BME280;70471;53.200;6.080;2024-03-08T09:16:20;101767.31;;;21.26;30.02
76122;BME280;70471;53.200;6.080;2024-03-08T09:21:12;101763.47;;;21.17;29.88
76122;BME280;70471;53.200;6.080;2024-03-08T09:26:03;101756.56;;;21.15;30.26
76122;BME280;70471;53.200;6.080;2024-03-08T09:30:56;101757.16;;;21.12;29.66
76122;BME280;70471;53.200;6.080;2024-03-08T09:35:49;101760.75;;;21.02;30.02
76122;BME280;70471;53.200;6.080;2024-03-08T09:40:41;101735.38;;;20.89;30.03
76122;BME280;70471;53.200;6.080;2024-03-08T09:45:36;101728.19;;;20.78;30.46
76122;BME280;70471;53.200;6.080;2024-03-08T09:50:31;101729.94;;;20.64;31.23
76122;BME280;70471;53.200;6.080;2024-03-08T09:55:24;101715.59;;;20.46;30.98
76122;BME280;70471;53.200;6.080;2024-03-08T10:00:22;101715.34;;;20.43;31.41
76122;BME280;70471;53.200;6.080;2024-03-08T10:05:17;101704.59;;;20.36;31.49
76122;BME280;70471;53.200;6.080;2024-03-08T10:10:13;101675.00;;;20.16;31.38
76122;BME280;70471;53.200;6.080;2024-03-08T10:15:08;101687.19;;;20.20;32.09
76122;BME280;70471;53.200;6.080;2024-03-08T10:20:03;101685.84;;;20.07;31.99
76122;BME280;70471;53.200;6.080;2024-03-08T10:25:07;101683.38;;;20.06;32.18
76122;BME280;70471;53.200;6.080;2024-03-08T10:30:05;101658.19;;;19.97;31.82
76122;BME280;70471;53.200;6.080;2024-03-08T10:35:00;101665.97;;;19.95;32.54
76122;BME280;70471;53.200;6.080;2024-03-08T10:40:02;101657.41;;;19.86;32.30
76122;BME280;70471;53.200;6.080;2024-03-08T10:45:08;101642.50;;;19.77;32.30
76122;BME280;70471;53.200;6.080;2024-03-08T10:50:11;101653.28;;;19.78;32.25
76122;BME280;70471;53.200;6.080;2024-03-08T10:55:13;101637.53;;;19.74;32.82
76122;BME280;70471;53.200;6.080;2024-03-08T11:00:12;101626.75;;;19.67;32.91
76122;BME280;70471;53.200;6.080;2024-03-08T11:05:10;101625.66;;;19.63;32.75
76122;BME280;70471;53.200;6.080;2024-03-08T11:10:18;101616.84;;;19.61;33.24
76122;BME280;70471;53.200;6.080;2024-03-08T11:15:12;101613.47;;;19.64;33.28
76122;BME280;70471;53.200;6.080;2024-03-08T11:20:10;101614.59;;;19.68;34.14
76122;BME280;70471;53.200;6.080;2024-03-08T11:25:09;101610.16;;;19.67;34.47
76122;BME280;70471;53.200;6.080;2024-03-08T11:30:02;101594.13;;;19.64;34.38
76122;BME280;70471;53.200;6.080;2024-03-08T11:35:18;101591.66;;;19.68;34.31
76122;BME280;70471;53.200;6.080;2024-03-08T11:40:12;101583.59;;;19.81;34.05
76122;BME280;70471;53.200;6.080;2024-03-08T11:45:08;101576.91;;;19.88;34.20
76122;BME280;70471;53.200;6.080;2024-03-08T11:50:01;101576.34;;;19.91;33.75
76122;BME280;70471;53.200;6.080;2024-03-08T11:54:55;101571.94;;;19.90;33.88
76122;BME280;70471;53.200;6.080;2024-03-08T11:59:50;101557.56;;;19.88;33.65
76122;BME280;70471;53.200;6.080;2024-03-08T12:04:41;101563.66;;;19.90;33.75
76122;BME280;70471;53.200;6.080;2024-03-08T12:09:36;101549.25;;;19.88;33.87
76122;BME280;70471;53.200;6.080;2024-03-08T12:14:29;101539.84;;;19.89;33.44
76122;BME280;70471;53.200;6.080;2024-03-08T12:19:21;101534.06;;;19.85;33.53
76122;BME280;70471;53.200;6.080;2024-03-08T12:24:14;101529.38;;;19.80;33.32
76122;BME280;70471;53.200;6.080;2024-03-08T12:29:25;101529.13;;;19.77;33.99
76122;BME280;70471;53.200;6.080;2024-03-08T12:34:19;101515.31;;;19.77;33.36
76122;BME280;70471;53.200;6.080;2024-03-08T12:39:10;101501.72;;;19.86;33.85
76122;BME280;70471;53.200;6.080;2024-03-08T12:44:03;101490.09;;;19.89;33.22
76122;BME280;70471;53.200;6.080;2024-03-08T12:48:57;101475.16;;;19.90;33.53
76122;BME280;70471;53.200;6.080;2024-03-08T12:53:52;101454.41;;;19.87;33.48
76122;BME280;70471;53.200;6.080;2024-03-08T12:58:46;101465.16;;;19.99;33.01
76122;BME280;70471;53.200;6.080;2024-03-08T13:03:37;101449.09;;;20.01;33.28
76122;BME280;70471;53.200;6.080;2024-03-08T13:08:32;101449.09;;;20.01;33.36
76122;BME280;70471;53.200;6.080;2024-03-08T13:13:29;101408.25;;;19.82;32.79
76122;BME280;70471;53.200;6.080;2024-03-08T13:18:26;101409.84;;;19.94;33.02
76122;BME280;70471;53.200;6.080;2024-03-08T13:23:19;101422.47;;;20.05;32.88
76122;BME280;70471;53.200;6.080;2024-03-08T13:28:11;101408.06;;;20.08;32.64
76122;BME280;70471;53.200;6.080;2024-03-08T13:33:07;101382.19;;;19.94;32.83
76122;BME280;70471;53.200;6.080;2024-03-08T13:38:00;101396.00;;;19.99;33.19
76122;BME280;70471;53.200;6.080;2024-03-08T13:42:54;101375.75;;;20.04;33.05
76122;BME280;70471;53.200;6.080;2024-03-08T13:47:47;101364.72;;;19.98;32.98
76122;BME280;70471;53.200;6.080;2024-03-08T13:52:47;101362.81;;;19.99;33.53
76122;BME280;70471;53.200;6.080;2024-03-08T13:57:43;101325.25;;;19.93;33.15
76122;BME280;70471;53.200;6.080;2024-03-08T14:02:36;101343.63;;;20.08;33.30
76122;BME280;70471;53.200;6.080;2024-03-08T14:07:31;101334.84;;;20.00;33.62
76122;BME280;70471;53.200;6.080;2024-03-08T14:12:30;101320.69;;;20.07;33.39
76122;BME280;70471;53.200;6.080;2024-03-08T14:17:27;101319.56;;;20.08;33.82
76122;BME280;70471;53.200;6.080;2024-03-08T14:22:24;101303.81;;;20.04;33.75
76122;BME280;70471;53.200;6.080;2024-03-08T14:27:18;101302.09;;;20.13;33.97
76122;BME280;70471;53.200;6.080;2024-03-08T14:32:20;101286.34;;;20.13;33.85
76122;BME280;70471;53.200;6.080;2024-03-08T14:37:15;101280.00;;;20.08;33.89
76122;BME280;70471;53.200;6.080;2024-03-08T14:42:11;101275.50;;;20.17;34.15
76122;BME280;70471;53.200;6.080;2024-03-08T14:47:07;101253.16;;;20.08;33.83
76122;BME280;70471;53.200;6.080;2024-03-08T14:52:04;101261.97;;;20.15;34.03
76122;BME280;70471;53.200;6.080;2024-03-08T14:57:20;101241.94;;;20.24;33.88
76122;BME280;70471;53.200;6.080;2024-03-08T15:02:14;101246.28;;;20.35;33.99
76122;BME280;70471;53.200;6.080;2024-03-08T15:07:14;101240.16;;;20.38;33.51
76122;BME280;70471;53.200;6.080;2024-03-08T15:12:12;101227.97;;;20.39;33.72
76122;BME280;70471;53.200;6.080;2024-03-08T15:17:11;101220.59;;;20.53;33.89
76122;BME280;70471;53.200;6.080;2024-03-08T15:22:15;101215.69;;;20.69;33.25
76122;BME280;70471;53.200;6.080;2024-03-08T15:27:14;101210.38;;;20.73;33.21
76122;BME280;70471;53.200;6.080;2024-03-08T15:32:08;101202.31;;;20.77;33.26
76122;BME280;70471;53.200;6.080;2024-03-08T15:37:10;101200.47;;;20.91;33.50
76122;BME280;70471;53.200;6.080;2024-03-08T15:42:11;101198.94;;;20.99;33.34
76122;BME280;70471;53.200;6.080;2024-03-08T15:47:03;101193.94;;;21.01;33.06
76122;BME280;70471;53.200;6.080;2024-03-08T15:51:57;101191.69;;;21.03;32.89
76122;BME280;70471;53.200;6.080;2024-03-08T15:56:52;101189.94;;;21.12;32.74
76122;BME280;70471;53.200;6.080;2024-03-08T16:01:45;101190.16;;;21.16;32.92
76122;BME280;70471;53.200;6.080;2024-03-08T16:06:41;101178.25;;;21.15;32.99
76122;BME280;70471;53.200;6.080;2024-03-08T16:11:34;101170.34;;;21.22;32.54
76122;BME280;70471;53.200;6.080;2024-03-08T16:16:29;101168.13;;;21.24;32.56
76122;BME280;70471;53.200;6.080;2024-03-08T16:21:23;101168.72;;;21.21;32.79
76122;BME280;70471;53.200;6.080;2024-03-08T16:26:15;101165.34;;;21.24;32.92
76122;BME280;70471;53.200;6.080;2024-03-08T16:31:08;101163.63;;;21.28;32.96
76122;BME280;70471;53.200;6.080;2024-03-08T16:36:00;101162.50;;;21.30;32.47
76122;BME280;70471;53.200;6.080;2024-03-08T16:40:54;101165.78;;;21.32;32.63
76122;BME280;70471;53.200;6.080;2024-03-08T16:45:47;101162.50;;;21.30;32.49
76122;BME280;70471;53.200;6.080;2024-03-08T16:50:41;101155.16;;;21.39;32.41
76122;BME280;70471;53.200;6.080;2024-03-08T16:55:34;101148.53;;;21.35;32.84
76122;BME280;70471;53.200;6.080;2024-03-08T17:00:27;101156.25;;;21.38;32.68
76122;BME280;70471;53.200;6.080;2024-03-08T17:05:18;101149.59;;;21.39;32.65
76122;BME280;70471;53.200;6.080;2024-03-08T17:10:10;101143.81;;;21.35;32.16
76122;BME280;70471;53.200;6.080;2024-03-08T17:15:09;101140.75;;;21.37;32.18
76122;BME280;70471;53.200;6.080;2024-03-08T17:20:02;101145.25;;;21.33;32.71
76122;BME280;70471;53.200;6.080;2024-03-08T17:24:56;101135.81;;;21.34;32.43
76122;BME280;70471;53.200;6.080;2024-03-08T17:29:49;101125.97;;;21.27;32.12
76122;BME280;70471;53.200;6.080;2024-03-08T17:34:41;101137.25;;;21.31;32.80
76122;BME280;70471;53.200;6.080;2024-03-08T17:39:34;101122.13;;;21.23;32.38
76122;BME280;70471;53.200;6.080;2024-03-08T17:44:26;101121.16;;;21.14;33.33
76122;BME280;70471;53.200;6.080;2024-03-08T17:49:18;101120.97;;;21.11;32.83
76122;BME280;70471;53.200;6.080;2024-03-08T17:54:10;101114.94;;;21.03;33.00
76122;BME280;70471;53.200;6.080;2024-03-08T17:59:05;101121.84;;;21.06;33.49
76122;BME280;70471;53.200;6.080;2024-03-08T18:03:58;101120.78;;;21.02;33.19
76122;BME280;70471;53.200;6.080;2024-03-08T18:08:51;101123.56;;;21.02;33.20
76122;BME280;70471;53.200;6.080;2024-03-08T18:13:42;101116.03;;;21.07;33.23
76122;BME280;70471;53.200;6.080;2024-03-08T18:18:35;101110.91;;;20.96;33.17
76122;BME280;70471;53.200;6.080;2024-03-08T18:23:28;101115.84;;;20.99;33.53
76122;BME280;70471;53.200;6.080;2024-03-08T18:28:20;101109.78;;;20.97;33.50
76122;BME280;70471;53.200;6.080;2024-03-08T18:33:12;101097.69;;;20.92;33.14
76122;BME280;70471;53.200;6.080;2024-03-08T18:38:06;101092.50;;;20.86;33.09
76122;BME280;70471;53.200;6.080;2024-03-08T18:42:58;101097.81;;;20.82;33.55
76122;BME280;70471;53.200;6.080;2024-03-08T18:47:51;101088.75;;;20.77;33.00
76122;BME280;70471;53.200;6.080;2024-03-08T18:52:44;101089.41;;;20.73;33.09
76122;BME280;70471;53.200;6.080;2024-03-08T18:57:39;101086.38;;;20.70;33.16
76122;BME280;70471;53.200;6.080;2024-03-08T19:02:33;101085.66;;;20.64;33.22
76122;BME280;70471;53.200;6.080;2024-03-08T19:07:25;101086.25;;;20.61;33.13
76122;BME280;70471;53.200;6.080;2024-03-08T19:12:18;101078.75;;;20.62;33.18
76122;BME280;70471;53.200;6.080;2024-03-08T19:17:11;101071.63;;;20.55;33.20
76122;BME280;70471;53.200;6.080;2024-03-08T19:22:03;101068.34;;;20.53;33.81
76122;BME280;70471;53.200;6.080;2024-03-08T19:26:55;101064.03;;;20.47;33.45
76122;BME280;70471;53.200;6.080;2024-03-08T19:31:49;101046.44;;;20.38;33.38
76122;BME280;70471;53.200;6.080;2024-03-08T19:36:42;101064.03;;;20.47;34.14
76122;BME280;70471;53.200;6.080;2024-03-08T19:41:34;101056.47;;;20.53;34.25
76122;BME280;70471;53.200;6.080;2024-03-08T19:46:25;101051.97;;;20.57;33.88
76122;BME280;70471;53.200;6.080;2024-03-08T19:51:17;101043.97;;;20.55;33.95
76122;BME280;70471;53.200;6.080;2024-03-08T19:56:10;101050.56;;;20.60;34.29
76122;BME280;70471;53.200;6.080;2024-03-08T20:01:01;101043.88;;;20.61;33.97
76122;BME280;70471;53.200;6.080;2024-03-08T20:05:54;101046.66;;;20.61;33.59
76122;BME280;70471;53.200;6.080;2024-03-08T20:10:46;101043.75;;;20.52;33.34
76122;BME280;70471;53.200;6.080;2024-03-08T20:15:39;101035.66;;;20.55;33.40
76122;BME280;70471;53.200;6.080;2024-03-08T20:20:35;101039.88;;;20.53;33.22
76122;BME280;70471;53.200;6.080;2024-03-08T20:25:28;101027.25;;;20.61;33.30
76122;BME280;70471;53.200;6.080;2024-03-08T20:30:23;101018.75;;;20.57;33.66
76122;BME280;70471;53.200;6.080;2024-03-08T20:35:17;101005.69;;;20.44;33.35
76122;BME280;70471;53.200;6.080;2024-03-08T20:40:11;101007.09;;;20.41;33.50
76122;BME280;70471;53.200;6.080;2024-03-08T20:45:03;101006.66;;;20.34;33.78
76122;BME280;70471;53.200;6.080;2024-03-08T20:49:55;100997.88;;;20.27;33.92
76122;BME280;70471;53.200;6.080;2024-03-08T20:54:48;100991.66;;;20.16;34.00
76122;BME280;70471;53.200;6.080;2024-03-08T20:59:39;100993.69;;;20.10;34.00
76122;BME280;70471;53.200;6.080;2024-03-08T21:04:31;100982.66;;;20.05;33.92
76122;BME280;70471;53.200;6.080;2024-03-08T21:09:25;100981.41;;;19.97;34.34
76122;BME280;70471;53.200;6.080;2024-03-08T21:14:22;100976.78;;;19.93;34.67
76122;BME280;70471;53.200;6.080;2024-03-08T21:19:14;100969.13;;;19.84;34.55
76122;BME280;70471;53.200;6.080;2024-03-08T21:24:05;100966.66;;;19.83;34.33
76122;BME280;70471;53.200;6.080;2024-03-08T21:28:57;100962.03;;;19.78;34.89
76122;BME280;70471;53.200;6.080;2024-03-08T21:33:50;100962.63;;;19.75;34.52
76122;BME280;70471;53.200;6.080;2024-03-08T21:38:41;100949.91;;;19.74;34.81
76122;BME280;70471;53.200;6.080;2024-03-08T21:43:33;100953.06;;;19.68;34.51
76122;BME280;70471;53.200;6.080;2024-03-08T21:48:25;100947.22;;;19.69;34.80
76122;BME280;70471;53.200;6.080;2024-03-08T21:53:18;100944.97;;;19.71;34.20
76122;BME280;70471;53.200;6.080;2024-03-08T21:58:11;100935.59;;;19.72;34.10
76122;BME280;70471;53.200;6.080;2024-03-08T22:03:03;100936.69;;;19.71;34.00
76122;BME280;70471;53.200;6.080;2024-03-08T22:07:55;100930.66;;;19.69;34.14
76122;BME280;70471;53.200;6.080;2024-03-08T22:12:49;100937.28;;;19.68;34.07
76122;BME280;70471;53.200;6.080;2024-03-08T22:17:40;100930.38;;;19.65;34.07
76122;BME280;70471;53.200;6.080;2024-03-08T22:22:32;100931.00;;;19.62;34.23
76122;BME280;70471;53.200;6.080;2024-03-08T22:27:23;100937.94;;;19.60;33.65
76122;BME280;70471;53.200;6.080;2024-03-08T22:32:16;100931.91;;;19.58;33.67
76122;BME280;70471;53.200;6.080;2024-03-08T22:37:07;100934.69;;;19.53;34.05
76122;BME280;70471;53.200;6.080;2024-03-08T22:41:59;100926.97;;;19.50;33.46
76122;BME280;70471;53.200;6.080;2024-03-08T22:46:51;100931.47;;;19.45;33.61
76122;BME280;70471;53.200;6.080;2024-03-08T22:51:44;100923.47;;;19.44;33.94
76122;BME280;70471;53.200;6.080;2024-03-08T22:56:35;100933.16;;;19.41;33.96
76122;BME280;70471;53.200;6.080;2024-03-08T23:01:26;100932.13;;;19.37;33.72
76122;BME280;70471;53.200;6.080;2024-03-08T23:06:23;100927.19;;;19.34;33.56
76122;BME280;70471;53.200;6.080;2024-03-08T23:11:17;100927.78;;;19.31;34.07
76122;BME280;70471;53.200;6.080;2024-03-08T23:16:08;100920.59;;;19.30;34.08
76122;BME280;70471;53.200;6.080;2024-03-08T23:21:00;100914.53;;;19.28;33.61
76122;BME280;70471;53.200;6.080;2024-03-08T23:25:53;100917.09;;;19.24;33.71
76122;BME280;70471;53.200;6.080;2024-03-08T23:30:46;100911.84;;;19.23;33.89
76122;BME280;70471;53.200;6.080;2024-03-08T23:35:40;100909.66;;;19.20;33.66
76122;BME280;70471;53.200;6.080;2024-03-08T23:40:34;100904.16;;;19.20;33.63
76122;BME280;70471;53.200;6.080;2024-03-08T23:45:25;100900.25;;;19.21;33.44
76122;BME280;70471;53.200;6.080;2024-03-08T23:50:20;100888.63;;;19.24;33.67
76122;BME280;70471;53.200;6.080;2024-03-08T23:55:13;100889.19;;;19.21;33.43
